SHT21B EGJB-EGLL
Flight info
| Callsign | SHT21B |
|---|---|
| Flight time | 0h 33m |
| Altitude | 23000 |
| Route | ORIST1F ORIST L982 ROXOG ROXOG1H |
| Aircraft | A319/M-SDE3FGIJ1KRWXY/LB1 |
Departure
| Time | 2026-04-20 15:00 |
|---|---|
| Airport | Guernsey Airport (EGJB) |
Arrival
| Time | 2026-04-20 15:33 |
|---|---|
| Airport | London Heathrow Airport (EGLL) |
| Time | Latitude | Longitude | Altitude | Speed | Heading |
|---|---|---|---|---|---|
| 2026-04-20 14:19 | 49.43259 | -2.59688 | 345 ft | 0 kts | 177° |
| 2026-04-20 14:52 | 49.43266 | -2.59688 | 345 ft | 4 kts | 178° |
| 2026-04-20 14:53 | 49.43293 | -2.59689 | 345 ft | 4 kts | 180° |
| 2026-04-20 14:53 | 49.43311 | -2.59689 | 345 ft | 4 kts | 183° |
| 2026-04-20 14:53 | 49.43338 | -2.59685 | 345 ft | 4 kts | 194° |
| 2026-04-20 14:53 | 49.43360 | -2.59669 | 355 ft | 4 kts | 252° |
| 2026-04-20 14:54 | 49.43362 | -2.59662 | 356 ft | 0 kts | 268° |
| 2026-04-20 14:57 | 49.43359 | -2.59706 | 351 ft | 8 kts | 261° |
| 2026-04-20 14:57 | 49.43347 | -2.59816 | 345 ft | 13 kts | 266° |
| 2026-04-20 14:57 | 49.43341 | -2.59987 | 345 ft | 18 kts | 268° |
| 2026-04-20 14:57 | 49.43335 | -2.60218 | 339 ft | 25 kts | 268° |
| 2026-04-20 14:58 | 49.43329 | -2.60438 | 334 ft | 20 kts | 268° |
| 2026-04-20 14:58 | 49.43337 | -2.60691 | 328 ft | 27 kts | 280° |
| 2026-04-20 14:58 | 49.43364 | -2.60945 | 322 ft | 20 kts | 276° |
| 2026-04-20 14:58 | 49.43360 | -2.61158 | 317 ft | 20 kts | 267° |
| 2026-04-20 14:59 | 49.43423 | -2.61350 | 313 ft | 20 kts | 328° |
| 2026-04-20 14:59 | 49.43470 | -2.61269 | 315 ft | 0 kts | 90° |
| 2026-04-20 14:59 | 49.43471 | -2.61139 | 318 ft | 54 kts | 89° |
| 2026-04-20 14:59 | 49.43505 | -2.60014 | 471 ft | 138 kts | 86° |
| 2026-04-20 15:00 | 49.43555 | -2.58471 | 1452 ft | 150 kts | 84° |
| 2026-04-20 15:00 | 49.43616 | -2.56770 | 2240 ft | 174 kts | 85° |
| 2026-04-20 15:00 | 49.43676 | -2.54770 | 2997 ft | 197 kts | 87° |
| 2026-04-20 15:00 | 49.43728 | -2.52650 | 4274 ft | 199 kts | 87° |
| 2026-04-20 15:01 | 49.43894 | -2.50517 | 5512 ft | 207 kts | 70° |
| 2026-04-20 15:01 | 49.44826 | -2.48785 | 6582 ft | 222 kts | 31° |
| 2026-04-20 15:01 | 49.46333 | -2.48032 | 7572 ft | 239 kts | 14° |
| 2026-04-20 15:01 | 49.48038 | -2.47390 | 8423 ft | 265 kts | 13° |
| 2026-04-20 15:02 | 49.49878 | -2.46698 | 9490 ft | 278 kts | 13° |
| 2026-04-20 15:02 | 49.51782 | -2.45982 | 10681 ft | 285 kts | 13° |
| 2026-04-20 15:02 | 49.53722 | -2.45249 | 11847 ft | 290 kts | 12° |
| 2026-04-20 15:02 | 49.55694 | -2.44502 | 13031 ft | 294 kts | 11° |
| 2026-04-20 15:03 | 49.57697 | -2.43744 | 14169 ft | 299 kts | 11° |
| 2026-04-20 15:03 | 49.59735 | -2.42971 | 15225 ft | 304 kts | 10° |
| 2026-04-20 15:03 | 49.61800 | -2.42191 | 16262 ft | 308 kts | 10° |
| 2026-04-20 15:03 | 49.63895 | -2.41395 | 17293 ft | 312 kts | 10° |
| 2026-04-20 15:04 | 49.66019 | -2.40588 | 18342 ft | 317 kts | 10° |
| 2026-04-20 15:04 | 49.68166 | -2.39681 | 19235 ft | 324 kts | 16° |
| 2026-04-20 15:04 | 49.70216 | -2.38104 | 20084 ft | 336 kts | 28° |
| 2026-04-20 15:04 | 49.72095 | -2.35713 | 20407 ft | 367 kts | 42° |
| 2026-04-20 15:05 | 49.73812 | -2.32620 | 20712 ft | 389 kts | 45° |
| 2026-04-20 15:05 | 49.75578 | -2.29373 | 21336 ft | 399 kts | 45° |
| 2026-04-20 15:05 | 49.77380 | -2.26059 | 22050 ft | 406 kts | 45° |
| 2026-04-20 15:05 | 49.79218 | -2.22691 | 22756 ft | 413 kts | 44° |
| 2026-04-20 15:06 | 49.81087 | -2.19278 | 23134 ft | 418 kts | 44° |
| 2026-04-20 15:06 | 49.82962 | -2.15851 | 23220 ft | 414 kts | 44° |
| 2026-04-20 15:06 | 49.84816 | -2.12453 | 23227 ft | 412 kts | 44° |
| 2026-04-20 15:06 | 49.86661 | -2.09067 | 23229 ft | 411 kts | 44° |
| 2026-04-20 15:07 | 49.88502 | -2.05684 | 23230 ft | 411 kts | 44° |
| 2026-04-20 15:07 | 49.90344 | -2.02300 | 23238 ft | 411 kts | 44° |
| 2026-04-20 15:07 | 49.92186 | -1.98916 | 23235 ft | 410 kts | 44° |
| 2026-04-20 15:07 | 49.94004 | -1.95575 | 23233 ft | 410 kts | 44° |
| 2026-04-20 15:08 | 49.95843 | -1.92184 | 23238 ft | 410 kts | 44° |
| 2026-04-20 15:08 | 49.97670 | -1.88810 | 23244 ft | 410 kts | 44° |
| 2026-04-20 15:08 | 49.99638 | -1.85649 | 23245 ft | 403 kts | 34° |
| 2026-04-20 15:08 | 50.01875 | -1.83096 | 23256 ft | 395 kts | 24° |
| 2026-04-20 15:09 | 50.04283 | -1.81107 | 23255 ft | 391 kts | 19° |
| 2026-04-20 15:09 | 50.06715 | -1.79200 | 23259 ft | 391 kts | 20° |
| 2026-04-20 15:09 | 50.09145 | -1.77285 | 23263 ft | 391 kts | 20° |
| 2026-04-20 15:09 | 50.11556 | -1.75338 | 23270 ft | 393 kts | 23° |
| 2026-04-20 15:10 | 50.13821 | -1.72856 | 23273 ft | 401 kts | 33° |
| 2026-04-20 15:10 | 50.15956 | -1.70061 | 23276 ft | 401 kts | 33° |
| 2026-04-20 15:10 | 50.18098 | -1.67272 | 23273 ft | 401 kts | 33° |
| 2026-04-20 15:10 | 50.20238 | -1.64496 | 23278 ft | 400 kts | 33° |
| 2026-04-20 15:11 | 50.22383 | -1.61717 | 23275 ft | 400 kts | 33° |
| 2026-04-20 15:11 | 50.24525 | -1.58957 | 23280 ft | 398 kts | 31° |
| 2026-04-20 15:11 | 50.26818 | -1.56618 | 23282 ft | 389 kts | 21° |
| 2026-04-20 15:11 | 50.29270 | -1.54953 | 23281 ft | 381 kts | 11° |
| 2026-04-20 15:12 | 50.31790 | -1.53726 | 23284 ft | 379 kts | 9° |
| 2026-04-20 15:12 | 50.34298 | -1.52505 | 23283 ft | 379 kts | 10° |
| 2026-04-20 15:12 | 50.36810 | -1.51269 | 23287 ft | 379 kts | 10° |
| 2026-04-20 15:12 | 50.39326 | -1.50025 | 23284 ft | 379 kts | 10° |
| 2026-04-20 15:13 | 50.41837 | -1.48789 | 23283 ft | 378 kts | 10° |
| 2026-04-20 15:13 | 50.44349 | -1.47552 | 23281 ft | 378 kts | 10° |
| 2026-04-20 15:13 | 50.46850 | -1.46316 | 23075 ft | 376 kts | 10° |
| 2026-04-20 15:13 | 50.49337 | -1.45084 | 22806 ft | 373 kts | 10° |
| 2026-04-20 15:14 | 50.51806 | -1.43865 | 22535 ft | 371 kts | 10° |
| 2026-04-20 15:14 | 50.54240 | -1.42456 | 22273 ft | 376 kts | 18° |
| 2026-04-20 15:14 | 50.56560 | -1.40528 | 22000 ft | 377 kts | 22° |
| 2026-04-20 15:14 | 50.58856 | -1.38551 | 21740 ft | 375 kts | 22° |
| 2026-04-20 15:15 | 50.61140 | -1.36582 | 21483 ft | 373 kts | 22° |
| 2026-04-20 15:15 | 50.63414 | -1.34627 | 21218 ft | 371 kts | 22° |
| 2026-04-20 15:15 | 50.65679 | -1.32677 | 20960 ft | 370 kts | 22° |
| 2026-04-20 15:15 | 50.67929 | -1.30736 | 20701 ft | 368 kts | 22° |
| 2026-04-20 15:16 | 50.70166 | -1.28807 | 20455 ft | 366 kts | 22° |
| 2026-04-20 15:16 | 50.72363 | -1.26909 | 20214 ft | 364 kts | 22° |
| 2026-04-20 15:16 | 50.74582 | -1.24989 | 19960 ft | 362 kts | 22° |
| 2026-04-20 15:16 | 50.76782 | -1.23064 | 19713 ft | 361 kts | 24° |
| 2026-04-20 15:17 | 50.78930 | -1.21004 | 19469 ft | 361 kts | 26° |
| 2026-04-20 15:17 | 50.81025 | -1.18852 | 19006 ft | 357 kts | 27° |
| 2026-04-20 15:17 | 50.83078 | -1.16667 | 18404 ft | 354 kts | 28° |
| 2026-04-20 15:17 | 50.85113 | -1.14493 | 17775 ft | 350 kts | 28° |
| 2026-04-20 15:18 | 50.87119 | -1.12376 | 17203 ft | 344 kts | 28° |
| 2026-04-20 15:18 | 50.89106 | -1.10302 | 16622 ft | 340 kts | 28° |
| 2026-04-20 15:18 | 50.91044 | -1.08292 | 16061 ft | 336 kts | 29° |
| 2026-04-20 15:18 | 50.92993 | -1.06274 | 15486 ft | 333 kts | 29° |
| 2026-04-20 15:19 | 50.94915 | -1.04282 | 14926 ft | 330 kts | 30° |
| 2026-04-20 15:19 | 50.96836 | -1.02289 | 14353 ft | 328 kts | 30° |
| 2026-04-20 15:19 | 50.98741 | -1.00313 | 13757 ft | 326 kts | 30° |
| 2026-04-20 15:19 | 51.00570 | -0.98212 | 13176 ft | 325 kts | 39° |
| 2026-04-20 15:20 | 51.02128 | -0.95595 | 12819 ft | 328 kts | 46° |
| 2026-04-20 15:20 | 51.03644 | -0.92886 | 12456 ft | 328 kts | 46° |
| 2026-04-20 15:20 | 51.05165 | -0.90194 | 12083 ft | 326 kts | 45° |
| 2026-04-20 15:20 | 51.06673 | -0.87525 | 11712 ft | 323 kts | 46° |
| 2026-04-20 15:21 | 51.08169 | -0.84871 | 11345 ft | 321 kts | 46° |
| 2026-04-20 15:21 | 51.09649 | -0.82238 | 10979 ft | 318 kts | 46° |
| 2026-04-20 15:21 | 51.11111 | -0.79629 | 10620 ft | 315 kts | 46° |
| 2026-04-20 15:21 | 51.12536 | -0.77077 | 10451 ft | 300 kts | 46° |
| 2026-04-20 15:22 | 51.13889 | -0.74650 | 10260 ft | 288 kts | 46° |
| 2026-04-20 15:22 | 51.15205 | -0.72293 | 9997 ft | 281 kts | 46° |
| 2026-04-20 15:22 | 51.16500 | -0.69978 | 9867 ft | 280 kts | 46° |
| 2026-04-20 15:22 | 51.17791 | -0.67667 | 9677 ft | 279 kts | 47° |
| 2026-04-20 15:23 | 51.19075 | -0.65361 | 9385 ft | 277 kts | 47° |
| 2026-04-20 15:23 | 51.20296 | -0.63167 | 9096 ft | 275 kts | 47° |
| 2026-04-20 15:23 | 51.21566 | -0.60891 | 8791 ft | 273 kts | 47° |
| 2026-04-20 15:23 | 51.22822 | -0.58632 | 8502 ft | 272 kts | 47° |
| 2026-04-20 15:24 | 51.24072 | -0.56379 | 8207 ft | 270 kts | 47° |
| 2026-04-20 15:24 | 51.25309 | -0.54147 | 7923 ft | 268 kts | 47° |
| 2026-04-20 15:24 | 51.26764 | -0.52423 | 7704 ft | 266 kts | 23° |
| 2026-04-20 15:24 | 51.28604 | -0.52006 | 7499 ft | 267 kts | 354° |
| 2026-04-20 15:25 | 51.30321 | -0.53065 | 7292 ft | 267 kts | 326° |
| 2026-04-20 15:25 | 51.31600 | -0.55184 | 7100 ft | 263 kts | 311° |
| 2026-04-20 15:25 | 51.32753 | -0.57430 | 6867 ft | 259 kts | 311° |
| 2026-04-20 15:25 | 51.33875 | -0.59660 | 6633 ft | 256 kts | 309° |
| 2026-04-20 15:26 | 51.34886 | -0.61983 | 6403 ft | 253 kts | 306° |
| 2026-04-20 15:26 | 51.35863 | -0.64303 | 6161 ft | 250 kts | 306° |
| 2026-04-20 15:26 | 51.36824 | -0.66606 | 5917 ft | 247 kts | 306° |
| 2026-04-20 15:26 | 51.37751 | -0.68842 | 5691 ft | 242 kts | 306° |
| 2026-04-20 15:27 | 51.38676 | -0.71075 | 5435 ft | 240 kts | 306° |
| 2026-04-20 15:27 | 51.39595 | -0.73298 | 5150 ft | 239 kts | 307° |
| 2026-04-20 15:27 | 51.40763 | -0.75087 | 4872 ft | 229 kts | 335° |
| 2026-04-20 15:27 | 51.42225 | -0.75845 | 4588 ft | 215 kts | 349° |
| 2026-04-20 15:28 | 51.43652 | -0.76222 | 4297 ft | 201 kts | 2° |
| 2026-04-20 15:28 | 51.45000 | -0.75882 | 3844 ft | 195 kts | 21° |
| 2026-04-20 15:28 | 51.46185 | -0.74831 | 3412 ft | 195 kts | 41° |
| 2026-04-20 15:28 | 51.47059 | -0.73221 | 3159 ft | 190 kts | 59° |
| 2026-04-20 15:29 | 51.47542 | -0.71310 | 2950 ft | 182 kts | 76° |
| 2026-04-20 15:29 | 51.47644 | -0.69331 | 2728 ft | 175 kts | 88° |
| 2026-04-20 15:29 | 51.47655 | -0.67425 | 2491 ft | 165 kts | 88° |
| 2026-04-20 15:29 | 51.47665 | -0.65638 | 2273 ft | 158 kts | 88° |
| 2026-04-20 15:30 | 51.47675 | -0.63876 | 2057 ft | 157 kts | 87° |
| 2026-04-20 15:30 | 51.47684 | -0.62138 | 1827 ft | 154 kts | 88° |
| 2026-04-20 15:30 | 51.47693 | -0.60439 | 1624 ft | 152 kts | 87° |
| 2026-04-20 15:30 | 51.47702 | -0.58754 | 1424 ft | 150 kts | 88° |
| 2026-04-20 15:31 | 51.47709 | -0.57169 | 1229 ft | 129 kts | 86° |
| 2026-04-20 15:31 | 51.47714 | -0.55834 | 1046 ft | 113 kts | 87° |
| 2026-04-20 15:31 | 51.47721 | -0.54613 | 896 ft | 107 kts | 87° |
| 2026-04-20 15:31 | 51.47725 | -0.53437 | 750 ft | 105 kts | 86° |
| 2026-04-20 15:32 | 51.47728 | -0.52278 | 589 ft | 104 kts | 86° |
| 2026-04-20 15:32 | 51.47735 | -0.51099 | 395 ft | 107 kts | 86° |
| 2026-04-20 15:32 | 51.47740 | -0.49933 | 271 ft | 104 kts | 86° |
| 2026-04-20 15:32 | 51.47751 | -0.48779 | 138 ft | 103 kts | 86° |
| 2026-04-20 15:33 | 51.47753 | -0.47713 | 85 ft | 81 kts | 89° |
| 2026-04-20 15:33 | 51.47754 | -0.47086 | 88 ft | 32 kts | 90° |
| 2026-04-20 15:33 | 51.47756 | -0.46696 | 90 ft | 47 kts | 89° |
| 2026-04-20 15:33 | 51.47753 | -0.46248 | 89 ft | 36 kts | 105° |
| 2026-04-20 15:34 | 51.47607 | -0.46112 | 90 ft | 17 kts | 223° |
| 2026-04-20 15:34 | 51.47594 | -0.46295 | 87 ft | 19 kts | 268° |
| 2026-04-20 15:34 | 51.47592 | -0.46540 | 87 ft | 25 kts | 271° |
| 2026-04-20 15:34 | 51.47590 | -0.46794 | 87 ft | 22 kts | 266° |
| 2026-04-20 15:35 | 51.47583 | -0.47070 | 89 ft | 27 kts | 270° |
| 2026-04-20 15:35 | 51.47581 | -0.47405 | 87 ft | 33 kts | 269° |
| 2026-04-20 15:35 | 51.47579 | -0.47789 | 87 ft | 29 kts | 269° |
| 2026-04-20 15:35 | 51.47578 | -0.48138 | 89 ft | 32 kts | 269° |
| 2026-04-20 15:36 | 51.47527 | -0.48385 | 87 ft | 14 kts | 192° |
| 2026-04-20 15:36 | 51.47451 | -0.48364 | 87 ft | 13 kts | 178° |
| 2026-04-20 15:36 | 51.47338 | -0.48362 | 87 ft | 19 kts | 178° |
| 2026-04-20 15:36 | 51.47186 | -0.48361 | 87 ft | 25 kts | 180° |
| 2026-04-20 15:37 | 51.47019 | -0.48358 | 87 ft | 19 kts | 179° |
| 2026-04-20 15:37 | 51.46899 | -0.48369 | 87 ft | 18 kts | 205° |
| 2026-04-20 15:37 | 51.46877 | -0.48570 | 87 ft | 19 kts | 269° |
| 2026-04-20 15:37 | 51.46876 | -0.48729 | 89 ft | 10 kts | 269° |
| 2026-04-20 15:38 | 51.46876 | -0.48840 | 87 ft | 6 kts | 270° |
| 2026-04-20 15:38 | 51.46905 | -0.48861 | 87 ft | 6 kts | 353° |
| 2026-04-20 15:38 | 51.46924 | -0.48861 | 87 ft | 0 kts | 359° |
| 2026-04-20 15:38 | 51.46930 | -0.48861 | 87 ft | 0 kts | 360° |